Time;durP1;ratioP1;P1;durP2;ratioP2;P2;SDS_P1;SDS_P2;PMS_P1;PMS_P2;Temp;Humidity;BMP_temperature;BMP_pressure;BME280_temperature;BME280_humidity;BME280_pressure;Samples;Min_cycle;Max_cycle;Signal;HPM_P1;HPM_P2
2023/05/31 00:01:59;;;;;;;5.95;4.38;;;;;;;;;;5093537;28;20043;-64
2023/05/31 00:04:25;;;;;;;7.22;4.60;;;;;;;;;;5093770;28;20028;-62
2023/05/31 00:06:50;;;;;;;5.55;4.80;;;;;;;;;;5093399;28;20467;-63
2023/05/31 00:09:16;;;;;;;6.78;4.90;;;;;;;;;;5093416;28;20070;-63
2023/05/31 00:11:42;;;;;;;5.50;4.60;;;;;;;;;;5093679;28;20024;-62
2023/05/31 00:14:07;;;;;;;7.15;4.90;;;;;;;;;;5093544;28;20406;-61
2023/05/31 00:16:33;;;;;;;4.65;4.22;;;;;;;;;;5093286;28;20107;-61
2023/05/31 00:18:59;;;;;;;7.57;4.45;;;;;;;;;;5093471;28;20077;-62
2023/05/31 00:21:25;;;;;;;7.40;5.28;;;;;;;;;;5093333;28;20031;-63
2023/05/31 00:23:50;;;;;;;6.18;4.57;;;;;;;;;;5093398;28;20497;-64
2023/05/31 00:26:16;;;;;;;5.13;4.32;;;;;;;;;;5093132;28;20028;-61
2023/05/31 00:28:41;;;;;;;6.00;5.10;;;;;;;;;;5092976;28;20103;-61
2023/05/31 00:31:07;;;;;;;5.10;4.53;;;;;;;;;;5093313;28;20016;-64
2023/05/31 00:33:32;;;;;;;6.30;4.82;;;;;;;;;;5092524;28;20407;-61
2023/05/31 00:35:58;;;;;;;6.28;4.72;;;;;;;;;;5092988;28;20039;-60
2023/05/31 00:38:23;;;;;;;5.50;4.38;;;;;;;;;;5093055;28;20193;-61
2023/05/31 00:40:49;;;;;;;7.63;4.80;;;;;;;;;;5093168;28;20035;-61
2023/05/31 00:43:14;;;;;;;7.43;4.82;;;;;;;;;;5092853;28;20464;-60
2023/05/31 00:45:40;;;;;;;6.10;4.50;;;;;;;;;;5092944;28;20016;-60
2023/05/31 00:48:06;;;;;;;4.72;4.22;;;;;;;;;;5092708;28;20107;-62
2023/05/31 00:50:31;;;;;;;5.45;4.70;;;;;;;;;;5092866;28;20028;-61
2023/05/31 00:52:59;;;;;;;5.55;4.70;;;;;;;;;;5092715;28;20024;-60
2023/05/31 00:55:25;;;;;;;5.55;4.63;;;;;;;;;;5092717;28;20035;-61
2023/05/31 00:57:51;;;;;;;5.57;4.45;;;;;;;;;;5092928;28;20027;-61
2023/05/31 01:00:17;;;;;;;5.07;4.57;;;;;;;;;;5092588;28;20024;-62
2023/05/31 01:02:43;;;;;;;6.13;4.53;;;;;;;;;;5092856;28;20030;-60
2023/05/31 01:05:09;;;;;;;6.30;4.40;;;;;;;;;;5091375;28;20103;-64
2023/05/31 01:07:35;;;;;;;4.90;4.40;;;;;;;;;;5092468;28;20087;-64
2023/05/31 01:10:03;;;;;;;5.43;4.70;;;;;;;;;;5092556;28;20085;-63
2023/05/31 01:12:47;;;;;;;5.05;4.43;;;;;;;;;;5092487;28;20380;-64
2023/05/31 01:15:23;;;;;;;5.47;4.75;;;;;;;;;;5092548;28;20020;-63
2023/05/31 01:18:10;;;;;;;5.65;4.63;;;;;;;;;;5092362;28;20035;-64
2023/05/31 01:20:38;;;;;;;5.82;4.35;;;;;;;;;;5092400;28;20032;-63
2023/05/31 01:23:33;;;;;;;5.97;4.13;;;;;;;;;;5092374;28;20020;-59
2023/05/31 01:26:25;;;;;;;4.70;4.20;;;;;;;;;;5092302;28;20024;-63
2023/05/31 01:28:55;;;;;;;16.38;5.10;;;;;;;;;;5083694;28;20399;-60
2023/05/31 01:31:21;;;;;;;6.10;4.50;;;;;;;;;;5092576;28;20060;-62
2023/05/31 01:33:49;;;;;;;6.00;4.60;;;;;;;;;;5092609;28;20028;-63
2023/05/31 01:36:14;;;;;;;4.88;4.32;;;;;;;;;;5092191;28;20518;-63
2023/05/31 01:38:40;;;;;;;6.40;4.80;;;;;;;;;;5092288;28;20043;-64
2023/05/31 01:41:07;;;;;;;5.18;4.47;;;;;;;;;;5090797;28;20141;-63
2023/05/31 01:43:35;;;;;;;5.40;4.72;;;;;;;;;;5092417;28;20051;-64
2023/05/31 01:46:01;;;;;;;5.10;4.43;;;;;;;;;;5094037;28;20114;-63
2023/05/31 01:48:28;;;;;;;5.30;4.60;;;;;;;;;;5096125;28;20028;-63
2023/05/31 01:50:55;;;;;;;4.70;4.22;;;;;;;;;;5096082;28;20028;-63
2023/05/31 01:53:21;;;;;;;5.07;4.57;;;;;;;;;;5096118;28;20065;-61
2023/05/31 01:55:47;;;;;;;5.63;4.53;;;;;;;;;;5095867;28;20109;-61
2023/05/31 01:58:15;;;;;;;8.57;4.70;;;;;;;;;;5096260;28;20367;-62
2023/05/31 02:00:41;;;;;;;5.32;4.30;;;;;;;;;;5095789;28;20024;-61
2023/05/31 02:03:07;;;;;;;6.50;4.68;;;;;;;;;;5095928;28;20081;-61
2023/05/31 02:05:32;;;;;;;4.60;4.00;;;;;;;;;;5096092;28;20132;-62
2023/05/31 02:07:58;;;;;;;6.18;4.32;;;;;;;;;;5095864;28;20051;-63
2023/05/31 02:10:24;;;;;;;4.75;4.22;;;;;;;;;;5095750;28;20024;-64
2023/05/31 02:12:50;;;;;;;5.05;4.25;;;;;;;;;;5095756;28;20024;-64
2023/05/31 02:15:19;;;;;;;5.60;4.50;;;;;;;;;;5095629;28;20106;-64
2023/05/31 02:17:46;;;;;;;4.70;3.88;;;;;;;;;;5095943;28;20028;-61
2023/05/31 02:20:14;;;;;;;5.43;4.45;;;;;;;;;;5095519;28;20060;-61
2023/05/31 02:22:44;;;;;;;6.43;4.75;;;;;;;;;;5095502;28;20077;-61
2023/05/31 02:25:10;;;;;;;4.93;4.40;;;;;;;;;;5095515;28;20028;-61
2023/05/31 02:27:36;;;;;;;4.85;4.30;;;;;;;;;;5095410;28;20032;-61
2023/05/31 02:30:04;;;;;;;4.60;4.15;;;;;;;;;;5095373;28;20054;-61
2023/05/31 02:32:35;;;;;;;5.10;4.40;;;;;;;;;;5095337;28;20039;-60
2023/05/31 02:35:03;;;;;;;6.38;4.43;;;;;;;;;;5094004;28;20101;-61
2023/05/31 02:37:30;;;;;;;4.43;4.00;;;;;;;;;;5095575;28;20031;-61
2023/05/31 02:39:55;;;;;;;5.28;4.15;;;;;;;;;;5094991;28;20395;-63
2023/05/31 02:42:21;;;;;;;5.82;4.35;;;;;;;;;;5095156;28;20024;-61
2023/05/31 02:44:46;;;;;;;5.43;4.20;;;;;;;;;;5095379;28;20475;-62
2023/05/31 02:47:12;;;;;;;5.00;4.18;;;;;;;;;;5095085;28;20426;-61
2023/05/31 02:49:37;;;;;;;5.40;4.40;;;;;;;;;;5093761;28;20074;-65
2023/05/31 02:52:03;;;;;;;7.50;4.22;;;;;;;;;;5095260;28;20068;-64
2023/05/31 02:54:28;;;;;;;4.93;4.22;;;;;;;;;;5095144;28;20371;-65
2023/05/31 02:56:54;;;;;;;6.07;4.38;;;;;;;;;;5094023;28;20052;-64
2023/05/31 02:59:19;;;;;;;5.38;4.32;;;;;;;;;;5094680;28;20523;-64
2023/05/31 03:01:45;;;;;;;4.32;3.90;;;;;;;;;;5094692;28;20031;-63
2023/05/31 03:04:11;;;;;;;5.25;4.20;;;;;;;;;;5094599;28;20024;-63
2023/05/31 03:06:36;;;;;;;6.35;4.22;;;;;;;;;;5094596;28;20025;-60
2023/05/31 03:09:03;;;;;;;5.13;4.43;;;;;;;;;;5094593;28;20020;-61
2023/05/31 03:11:28;;;;;;;4.70;4.15;;;;;;;;;;5094575;28;20035;-61
2023/05/31 03:13:55;;;;;;;4.47;4.07;;;;;;;;;;5094758;28;20032;-62
2023/05/31 03:16:20;;;;;;;7.45;4.90;;;;;;;;;;5094714;28;20383;-61
2023/05/31 03:18:46;;;;;;;5.68;4.07;;;;;;;;;;5094306;28;20024;-61
2023/05/31 03:21:12;;;;;;;4.95;4.18;;;;;;;;;;5094293;28;20035;-64
2023/05/31 03:23:37;;;;;;;5.53;4.43;;;;;;;;;;5094308;28;20510;-61
2023/05/31 03:26:03;;;;;;;5.07;4.28;;;;;;;;;;5094809;28;20020;-61
2023/05/31 03:28:28;;;;;;;5.03;4.38;;;;;;;;;;5094432;28;20030;-64
2023/05/31 03:30:55;;;;;;;4.40;4.00;;;;;;;;;;5094434;28;20024;-60
2023/05/31 03:33:21;;;;;;;5.35;4.40;;;;;;;;;;5094115;28;20024;-60
2023/05/31 03:35:46;;;;;;;5.18;3.88;;;;;;;;;;5094118;28;20020;-62
2023/05/31 03:38:12;;;;;;;5.63;4.47;;;;;;;;;;5093873;28;20131;-64
2023/05/31 03:40:37;;;;;;;10.05;4.40;;;;;;;;;;5093936;28;20020;-62
2023/05/31 03:43:03;;;;;;;4.78;4.28;;;;;;;;;;5093980;28;20028;-64
2023/05/31 03:45:28;;;;;;;5.43;4.20;;;;;;;;;;5093968;28;20057;-62
2023/05/31 03:47:54;;;;;;;4.85;4.35;;;;;;;;;;5093881;28;20540;-61
2023/05/31 03:50:19;;;;;;;6.28;4.28;;;;;;;;;;5094147;28;20105;-64
2023/05/31 03:52:45;;;;;;;5.15;4.20;;;;;;;;;;5093970;28;20468;-63
2023/05/31 03:55:10;;;;;;;4.80;4.22;;;;;;;;;;5094103;28;20435;-64
2023/05/31 03:57:36;;;;;;;5.40;4.25;;;;;;;;;;5093674;28;20506;-63
2023/05/31 04:00:02;;;;;;;4.68;4.22;;;;;;;;;;5093978;28;20028;-63
2023/05/31 04:02:28;;;;;;;5.43;3.90;;;;;;;;;;5093501;28;20032;-64
2023/05/31 04:04:53;;;;;;;4.80;4.30;;;;;;;;;;5093956;28;20031;-63
2023/05/31 04:07:19;;;;;;;4.93;4.00;;;;;;;;;;5093415;28;20498;-63
2023/05/31 04:09:45;;;;;;;4.13;3.75;;;;;;;;;;5093251;28;20031;-60
2023/05/31 04:12:10;;;;;;;4.90;4.38;;;;;;;;;;5093652;28;20024;-60
2023/05/31 04:14:36;;;;;;;4.93;4.30;;;;;;;;;;5093340;28;20472;-60
2023/05/31 04:17:01;;;;;;;4.63;4.20;;;;;;;;;;5092020;28;20024;-60
2023/05/31 04:19:27;;;;;;;4.45;4.05;;;;;;;;;;5093247;28;20024;-61
2023/05/31 04:21:52;;;;;;;5.85;3.72;;;;;;;;;;5093147;28;20043;-63
2023/05/31 04:24:18;;;;;;;4.60;3.85;;;;;;;;;;5093226;28;20023;-60
2023/05/31 04:26:44;;;;;;;4.75;4.10;;;;;;;;;;5093088;28;20032;-60
2023/05/31 04:29:10;;;;;;;5.00;4.13;;;;;;;;;;5093104;28;20054;-61
2023/05/31 04:31:36;;;;;;;5.28;4.47;;;;;;;;;;5092970;28;20020;-63
2023/05/31 04:34:03;;;;;;;4.93;4.13;;;;;;;;;;5092927;28;20028;-61
2023/05/31 04:36:29;;;;;;;5.30;4.00;;;;;;;;;;5093143;28;20052;-63
2023/05/31 04:38:55;;;;;;;4.20;3.80;;;;;;;;;;5092770;28;20534;-61
2023/05/31 04:41:25;;;;;;;5.20;4.00;;;;;;;;;;5092724;28;20044;-60
2023/05/31 04:43:52;;;;;;;4.97;4.22;;;;;;;;;;5092757;28;20035;-60
2023/05/31 04:46:19;;;;;;;4.50;4.10;;;;;;;;;;5092932;28;20032;-60
2023/05/31 04:48:48;;;;;;;4.97;4.05;;;;;;;;;;5093024;28;20372;-60
2023/05/31 04:51:13;;;;;;;4.20;3.70;;;;;;;;;;5092579;28;20028;-60
2023/05/31 04:53:39;;;;;;;4.55;3.88;;;;;;;;;;5092863;28;20038;-63
2023/05/31 04:56:07;;;;;;;5.25;4.13;;;;;;;;;;5092871;28;20519;-61
2023/05/31 04:58:33;;;;;;;4.75;4.07;;;;;;;;;;5091262;28;20038;-60
2023/05/31 05:00:59;;;;;;;5.32;3.90;;;;;;;;;;5092554;28;20036;-60
2023/05/31 05:03:25;;;;;;;5.47;4.05;;;;;;;;;;5092553;28;20028;-61
2023/05/31 05:05:52;;;;;;;4.22;3.83;;;;;;;;;;5092593;28;20036;-62
2023/05/31 05:08:17;;;;;;;4.20;3.78;;;;;;;;;;5092547;28;20028;-61
2023/05/31 05:10:43;;;;;;;4.35;3.83;;;;;;;;;;5092462;28;20042;-61
2023/05/31 05:13:10;;;;;;;4.38;3.97;;;;;;;;;;5092489;28;20032;-62
2023/05/31 05:15:35;;;;;;;5.20;4.07;;;;;;;;;;5092777;28;20024;-60
2023/05/31 05:18:02;;;;;;;5.70;4.05;;;;;;;;;;5092395;28;20024;-61
2023/05/31 05:20:28;;;;;;;4.10;3.65;;;;;;;;;;5093169;28;20102;-60
2023/05/31 05:22:53;;;;;;;4.65;4.13;;;;;;;;;;5095357;28;20127;-61
2023/05/31 05:25:20;;;;;;;4.28;3.88;;;;;;;;;;5096581;28;20031;-60
2023/05/31 05:27:46;;;;;;;4.50;3.97;;;;;;;;;;5096867;28;20406;-62
2023/05/31 05:30:12;;;;;;;4.75;4.05;;;;;;;;;;5095583;28;20052;-62
2023/05/31 05:32:38;;;;;;;3.90;3.33;;;;;;;;;;5096692;28;20071;-60
2023/05/31 05:35:04;;;;;;;4.30;3.90;;;;;;;;;;5096829;28;20028;-61
2023/05/31 05:37:29;;;;;;;5.03;4.25;;;;;;;;;;5096358;28;20099;-64
2023/05/31 05:39:55;;;;;;;4.82;3.97;;;;;;;;;;5094948;28;20082;-61
2023/05/31 05:42:20;;;;;;;4.43;3.80;;;;;;;;;;5096206;28;20475;-60
2023/05/31 05:44:46;;;;;;;4.95;4.07;;;;;;;;;;5096500;28;20036;-61
2023/05/31 05:47:13;;;;;;;4.13;3.70;;;;;;;;;;5096479;28;20028;-61
2023/05/31 05:49:38;;;;;;;5.53;4.07;;;;;;;;;;5095245;28;20023;-61
2023/05/31 05:52:04;;;;;;;4.47;3.97;;;;;;;;;;5094784;28;20028;-61
2023/05/31 05:54:30;;;;;;;5.47;3.92;;;;;;;;;;5095141;28;20031;-61
2023/05/31 05:56:55;;;;;;;4.13;3.72;;;;;;;;;;5094988;28;20028;-61
2023/05/31 05:59:21;;;;;;;4.53;3.95;;;;;;;;;;5095699;28;20032;-64
2023/05/31 06:01:46;;;;;;;8.57;3.85;;;;;;;;;;5095309;28;20020;-64
2023/05/31 06:04:12;;;;;;;5.85;4.03;;;;;;;;;;5095794;28;20028;-63
2023/05/31 06:06:38;;;;;;;5.00;4.43;;;;;;;;;;5095766;28;20017;-61
2023/05/31 06:09:03;;;;;;;5.20;4.07;;;;;;;;;;5095906;28;20028;-62
2023/05/31 06:11:29;;;;;;;5.25;3.85;;;;;;;;;;5095742;28;20020;-62
2023/05/31 06:13:57;;;;;;;4.47;3.85;;;;;;;;;;5095737;28;20024;-62
2023/05/31 06:16:23;;;;;;;4.63;3.80;;;;;;;;;;5095435;28;20028;-61
2023/05/31 06:18:49;;;;;;;5.50;3.95;;;;;;;;;;5095550;28;20024;-61
2023/05/31 06:21:16;;;;;;;5.22;4.10;;;;;;;;;;5095440;28;20050;-61
2023/05/31 06:23:41;;;;;;;4.63;3.90;;;;;;;;;;5095542;28;20020;-61
2023/05/31 06:26:07;;;;;;;4.43;3.90;;;;;;;;;;5095331;28;20498;-61
2023/05/31 06:28:32;;;;;;;5.25;3.78;;;;;;;;;;5095325;28;20103;-61
2023/05/31 06:31:00;;;;;;;4.55;4.07;;;;;;;;;;5095234;28;20039;-61
2023/05/31 06:33:26;;;;;;;4.50;4.10;;;;;;;;;;5095356;28;20107;-61
2023/05/31 06:35:52;;;;;;;4.75;4.00;;;;;;;;;;5094068;28;20463;-61
2023/05/31 06:38:17;;;;;;;6.95;4.30;;;;;;;;;;5095136;28;20047;-61
2023/05/31 06:40:44;;;;;;;4.20;3.80;;;;;;;;;;5095268;28;20020;-61
2023/05/31 06:43:10;;;;;;;5.18;4.10;;;;;;;;;;5095139;28;20048;-63
2023/05/31 06:45:37;;;;;;;5.25;4.22;;;;;;;;;;5095023;28;20024;-62
2023/05/31 06:48:03;;;;;;;4.97;4.00;;;;;;;;;;5095324;28;20032;-63
2023/05/31 06:50:28;;;;;;;6.75;4.22;;;;;;;;;;5094943;28;20384;-64
2023/05/31 06:52:55;;;;;;;7.00;4.30;;;;;;;;;;5094920;28;20479;-62
2023/05/31 06:55:20;;;;;;;5.22;4.20;;;;;;;;;;5095171;28;20081;-62
2023/05/31 06:57:46;;;;;;;5.13;4.15;;;;;;;;;;5093471;28;20028;-61
2023/05/31 07:00:12;;;;;;;4.45;4.03;;;;;;;;;;5094782;28;20525;-63
2023/05/31 07:02:37;;;;;;;5.22;4.30;;;;;;;;;;5094679;28;20070;-64
2023/05/31 07:05:03;;;;;;;5.40;3.90;;;;;;;;;;5093267;28;20047;-64
2023/05/31 07:07:29;;;;;;;4.50;4.07;;;;;;;;;;5094722;28;20021;-63
2023/05/31 07:09:55;;;;;;;4.90;4.40;;;;;;;;;;5094481;28;20036;-63
2023/05/31 07:12:20;;;;;;;6.13;4.07;;;;;;;;;;5094517;28;20067;-63
2023/05/31 07:14:46;;;;;;;4.93;3.97;;;;;;;;;;5094442;28;20020;-63
2023/05/31 07:17:11;;;;;;;4.97;3.83;;;;;;;;;;5094730;28;20028;-62
2023/05/31 07:19:47;;;;;;;7.20;3.85;;;;;;;;;;5094654;28;20416;-63
2023/05/31 07:22:15;;;;;;;4.40;4.00;;;;;;;;;;5094216;28;20032;-62
2023/05/31 07:24:41;;;;;;;4.30;3.90;;;;;;;;;;5094221;28;20468;-64
2023/05/31 07:27:07;;;;;;;4.47;3.58;;;;;;;;;;5094662;28;20372;-62
2023/05/31 07:29:33;;;;;;;4.63;3.88;;;;;;;;;;5094190;28;20028;-64
2023/05/31 07:31:59;;;;;;;5.97;4.18;;;;;;;;;;5094546;28;20031;-62
2023/05/31 07:34:25;;;;;;;4.88;3.92;;;;;;;;;;5092848;28;20020;-63
2023/05/31 07:36:50;;;;;;;6.07;4.10;;;;;;;;;;5094273;28;20493;-62
2023/05/31 07:39:16;;;;;;;6.47;3.92;;;;;;;;;;5093845;28;20044;-64
2023/05/31 07:41:42;;;;;;;4.50;3.58;;;;;;;;;;5094207;28;20031;-64
2023/05/31 07:44:08;;;;;;;5.95;4.05;;;;;;;;;;5093517;28;20154;-62
2023/05/31 07:46:35;;;;;;;5.38;4.05;;;;;;;;;;5093762;28;20683;-64
2023/05/31 07:49:02;;;;;;;4.70;3.83;;;;;;;;;;5093536;28;20032;-63
2023/05/31 07:51:31;;;;;;;5.53;3.80;;;;;;;;;;5093523;28;20479;-61
2023/05/31 07:53:57;;;;;;;6.25;4.28;;;;;;;;;;5090994;28;20035;-64
2023/05/31 07:56:23;;;;;;;4.93;4.22;;;;;;;;;;5090122;28;20391;-63
2023/05/31 07:58:49;;;;;;;4.65;3.92;;;;;;;;;;5088843;28;20499;-61
2023/05/31 08:01:16;;;;;;;4.18;3.67;;;;;;;;;;5088324;28;20075;-61
2023/05/31 08:03:41;;;;;;;5.70;3.75;;;;;;;;;;5088978;28;20052;-62
2023/05/31 08:06:07;;;;;;;4.75;3.88;;;;;;;;;;5090801;28;20047;-64
2023/05/31 08:08:33;;;;;;;6.00;4.00;;;;;;;;;;5092058;28;20032;-62
2023/05/31 08:11:00;;;;;;;5.35;3.50;;;;;;;;;;5092269;28;20093;-64
2023/05/31 08:13:26;;;;;;;5.57;3.95;;;;;;;;;;5092060;28;20046;-62
2023/05/31 08:15:52;;;;;;;4.65;3.92;;;;;;;;;;5091435;28;20491;-63
2023/05/31 08:18:18;;;;;;;4.90;4.00;;;;;;;;;;5092661;28;20051;-62
2023/05/31 08:20:43;;;;;;;4.30;3.72;;;;;;;;;;5093137;28;20024;-62
2023/05/31 08:23:19;;;;;;;4.95;3.83;;;;;;;;;;5093394;28;20020;-64
2023/05/31 08:25:45;;;;;;;5.65;3.92;;;;;;;;;;5089720;28;20077;-61
2023/05/31 08:28:11;;;;;;;8.27;3.90;;;;;;;;;;5090657;28;20020;-61
2023/05/31 08:30:37;;;;;;;4.97;4.07;;;;;;;;;;5093096;28;20478;-62
2023/05/31 08:33:02;;;;;;;4.20;3.47;;;;;;;;;;5091239;28;20481;-63
2023/05/31 08:35:28;;;;;;;6.00;3.90;;;;;;;;;;5088545;28;20023;-62
2023/05/31 08:37:54;;;;;;;5.57;3.50;;;;;;;;;;5090023;28;20023;-64
2023/05/31 08:40:20;;;;;;;5.18;3.97;;;;;;;;;;5090229;28;20082;-64
2023/05/31 08:42:46;;;;;;;4.22;3.67;;;;;;;;;;5090831;28;20028;-63
2023/05/31 08:45:11;;;;;;;6.53;3.90;;;;;;;;;;5091093;28;20668;-63
2023/05/31 08:47:45;;;;;;;4.78;3.83;;;;;;;;;;5091005;28;20032;-65
2023/05/31 08:50:11;;;;;;;4.63;3.60;;;;;;;;;;5091358;28;20063;-63
2023/05/31 08:52:38;;;;;;;4.15;3.72;;;;;;;;;;5091012;28;20492;-65
2023/05/31 08:55:04;;;;;;;4.68;3.85;;;;;;;;;;5088636;28;20135;-63
2023/05/31 08:57:31;;;;;;;4.78;3.70;;;;;;;;;;5087983;28;20020;-62
2023/05/31 08:59:57;;;;;;;5.05;3.88;;;;;;;;;;5089455;28;20034;-62
2023/05/31 09:02:23;;;;;;;6.10;4.10;;;;;;;;;;5090692;28;20038;-63
2023/05/31 09:04:50;;;;;;;3.60;3.30;;;;;;;;;;5088488;28;20060;-64
2023/05/31 09:07:16;;;;;;;5.53;3.63;;;;;;;;;;5091031;28;20551;-65
2023/05/31 09:09:42;;;;;;;3.80;3.40;;;;;;;;;;5091100;28;20036;-64
2023/05/31 09:12:08;;;;;;;5.28;3.60;;;;;;;;;;5087950;28;20439;-61
2023/05/31 09:14:34;;;;;;;7.53;3.80;;;;;;;;;;5088738;28;20055;-64
2023/05/31 09:17:00;;;;;;;4.03;3.63;;;;;;;;;;5087064;28;20024;-63
2023/05/31 09:19:26;;;;;;;4.95;3.83;;;;;;;;;;5090198;28;20045;-63
2023/05/31 09:21:52;;;;;;;4.55;3.95;;;;;;;;;;5089110;28;20035;-61
2023/05/31 09:24:19;;;;;;;5.30;3.50;;;;;;;;;;5088901;28;20501;-64
2023/05/31 09:26:52;;;;;;;5.80;3.80;;;;;;;;;;5089421;28;20058;-59
2023/05/31 09:29:19;;;;;;;5.05;3.92;;;;;;;;;;5088609;28;20031;-60
2023/05/31 09:31:45;;;;;;;4.15;3.50;;;;;;;;;;5088124;28;20016;-60
2023/05/31 09:34:29;;;;;;;4.22;3.50;;;;;;;;;;5087337;28;20040;-61
2023/05/31 09:36:58;;;;;;;5.70;4.75;;;;;;;;;;5089404;28;20494;-63
2023/05/31 09:39:24;;;;;;;5.85;3.50;;;;;;;;;;5089299;28;20044;-64
2023/05/31 09:41:51;;;;;;;5.60;3.75;;;;;;;;;;5089573;28;20376;-63
2023/05/31 09:44:17;;;;;;;4.72;3.78;;;;;;;;;;5088335;28;20020;-64
2023/05/31 09:46:46;;;;;;;7.25;4.10;;;;;;;;;;5090490;28;20058;-64
2023/05/31 09:49:12;;;;;;;5.60;3.78;;;;;;;;;;5090103;28;20028;-60
2023/05/31 09:51:37;;;;;;;6.05;3.67;;;;;;;;;;5090025;28;20081;-63
2023/05/31 09:54:10;;;;;;;4.55;3.72;;;;;;;;;;5088453;28;20028;-64
2023/05/31 09:56:37;;;;;;;5.70;3.80;;;;;;;;;;5090095;28;20035;-64
2023/05/31 09:59:04;;;;;;;3.85;3.40;;;;;;;;;;5088730;28;20074;-61
2023/05/31 10:01:31;;;;;;;4.45;3.60;;;;;;;;;;5089664;28;20349;-62
2023/05/31 10:03:59;;;;;;;4.07;3.67;;;;;;;;;;5090291;28;20028;-63
2023/05/31 10:06:25;;;;;;;4.45;3.53;;;;;;;;;;5090933;28;20391;-60
2023/05/31 10:08:51;;;;;;;4.05;3.65;;;;;;;;;;5094040;28;20039;-61
2023/05/31 10:11:19;;;;;;;3.85;3.55;;;;;;;;;;5094351;28;20031;-63
2023/05/31 10:13:47;;;;;;;4.70;3.70;;;;;;;;;;5094288;28;20647;-61
2023/05/31 10:16:15;;;;;;;5.05;3.70;;;;;;;;;;5094033;28;20028;-63
2023/05/31 10:18:45;;;;;;;5.07;3.70;;;;;;;;;;5094217;28;20028;-62
2023/05/31 10:21:24;;;;;;;4.15;3.75;;;;;;;;;;5093741;28;20115;-61
2023/05/31 10:24:07;;;;;;;4.03;3.63;;;;;;;;;;5093923;28;20036;-61
2023/05/31 10:26:46;;;;;;;4.63;3.65;;;;;;;;;;5093741;28;20032;-61
2023/05/31 10:29:23;;;;;;;4.60;3.45;;;;;;;;;;5093766;28;20468;-63
2023/05/31 10:31:50;;;;;;;5.28;3.50;;;;;;;;;;5093723;28;20024;-61
2023/05/31 10:34:24;;;;;;;5.63;3.78;;;;;;;;;;5093682;28;20099;-61
2023/05/31 10:36:53;;;;;;;4.65;3.63;;;;;;;;;;5093851;28;20027;-61
2023/05/31 10:39:20;;;;;;;4.28;3.60;;;;;;;;;;5093466;28;20044;-61
2023/05/31 10:41:51;;;;;;;4.18;3.75;;;;;;;;;;5093231;28;20036;-61
2023/05/31 10:44:26;;;;;;;4.47;3.63;;;;;;;;;;5093458;28;20063;-61
2023/05/31 10:47:00;;;;;;;4.70;3.22;;;;;;;;;;5093520;28;20097;-64
2023/05/31 10:49:27;;;;;;;4.93;3.72;;;;;;;;;;5093361;28;20024;-61
2023/05/31 10:51:53;;;;;;;4.05;3.65;;;;;;;;;;5093244;28;20114;-61
2023/05/31 10:54:20;;;;;;;4.60;3.78;;;;;;;;;;5093099;28;20103;-62
2023/05/31 10:56:53;;;;;;;3.55;3.25;;;;;;;;;;5093185;28;20034;-64
2023/05/31 10:59:19;;;;;;;5.07;3.50;;;;;;;;;;5092244;28;20042;-65
2023/05/31 11:01:45;;;;;;;3.78;3.13;;;;;;;;;;5081059;28;20043;-65
2023/05/31 11:04:25;;;;;;;3.65;3.35;;;;;;;;;;5073063;28;20032;-61
2023/05/31 11:07:15;;;;;;;5.18;3.92;;;;;;;;;;5072730;28;20488;-63
2023/05/31 11:09:41;;;;;;;;;;;;;;;;;;5073589;28;20066;-65
2023/05/31 11:12:11;;;;;;;4.15;3.20;;;;;;;;;;5084705;28;19915;-64
2023/05/31 11:14:37;;;;;;;7.97;3.80;;;;;;;;;;5092993;28;20026;-65
2023/05/31 11:17:03;;;;;;;6.45;4.07;;;;;;;;;;5073570;28;20269;-66
2023/05/31 11:19:30;;;;;;;6.63;3.65;;;;;;;;;;5071693;28;20028;-66
2023/05/31 11:22:21;;;;;;;14.35;4.18;;;;;;;;;;5072298;28;20115;-65
2023/05/31 11:24:52;;;;;;;9.93;4.32;;;;;;;;;;5072746;28;20028;-65
2023/05/31 11:27:20;;;;;;;19.92;5.70;;;;;;;;;;5072295;28;20033;-64
2023/05/31 11:29:51;;;;;;;22.08;7.32;;;;;;;;;;5072687;28;20025;-63
2023/05/31 11:32:33;;;;;;;12.40;4.20;;;;;;;;;;5072176;28;20456;-62
2023/05/31 11:35:04;;;;;;;6.03;3.67;;;;;;;;;;5072252;28;20049;-64
2023/05/31 11:37:31;;;;;;;5.57;3.83;;;;;;;;;;5072240;28;20025;-64
2023/05/31 11:40:02;;;;;;;7.65;3.90;;;;;;;;;;5072042;28;20438;-62
2023/05/31 11:42:31;;;;;;;6.03;3.67;;;;;;;;;;5072141;28;20037;-64
2023/05/31 11:45:03;;;;;;;7.43;4.10;;;;;;;;;;5070813;28;20024;-64
2023/05/31 11:47:35;;;;;;;7.32;4.10;;;;;;;;;;5091160;28;20032;-64
2023/05/31 11:50:01;;;;;;;8.50;4.05;;;;;;;;;;5092348;28;20028;-64
2023/05/31 11:52:28;;;;;;;5.30;3.42;;;;;;;;;;5092217;28;20107;-63
2023/05/31 11:54:57;;;;;;;7.18;3.25;;;;;;;;;;5092129;28;20525;-61
2023/05/31 11:57:23;;;;;;;6.40;4.07;;;;;;;;;;5092311;28;20089;-65
2023/05/31 11:59:49;;;;;;;4.07;3.40;;;;;;;;;;5090956;28;20426;-63
2023/05/31 12:02:14;;;;;;;6.25;3.88;;;;;;;;;;5092266;28;20053;-64
2023/05/31 12:04:42;;;;;;;4.95;3.42;;;;;;;;;;5092248;28;20387;-62
2023/05/31 12:07:11;;;;;;;6.18;3.20;;;;;;;;;;5091973;28;20039;-63
2023/05/31 12:09:37;;;;;;;6.93;3.83;;;;;;;;;;5080741;28;20029;-65
2023/05/31 12:12:05;;;;;;;4.05;3.20;;;;;;;;;;5071946;28;20119;-67
2023/05/31 12:14:31;;;;;;;5.80;3.53;;;;;;;;;;5071406;28;20033;-64
2023/05/31 12:17:03;;;;;;;4.38;3.40;;;;;;;;;;5071691;28;20044;-63
2023/05/31 12:19:29;;;;;;;5.70;3.47;;;;;;;;;;5071355;28;20027;-64
2023/05/31 12:21:55;;;;;;;5.47;3.53;;;;;;;;;;5071241;28;20028;-63
2023/05/31 12:24:21;;;;;;;5.85;3.70;;;;;;;;;;5071368;28;20032;-65
2023/05/31 12:26:51;;;;;;;7.40;3.83;;;;;;;;;;5071600;28;20036;-62
2023/05/31 12:29:16;;;;;;;;;;;;;;;;;;5070279;28;20056;-65
2023/05/31 12:31:42;;;;;;;5.85;3.88;;;;;;;;;;5071652;28;19912;-62
2023/05/31 12:34:10;;;;;;;6.93;3.60;;;;;;;;;;5072559;28;20024;-61
2023/05/31 12:36:38;;;;;;;5.95;3.40;;;;;;;;;;5080135;28;20028;-63
2023/05/31 12:39:11;;;;;;;4.47;3.47;;;;;;;;;;5079628;28;20063;-63
2023/05/31 12:41:41;;;;;;;6.95;3.53;;;;;;;;;;5091931;28;20118;-64
2023/05/31 12:44:07;;;;;;;5.00;3.40;;;;;;;;;;5091249;28;20052;-63
2023/05/31 12:46:40;;;;;;;6.50;3.25;;;;;;;;;;5090851;28;20035;-62
2023/05/31 12:49:28;;;;;;;4.18;3.35;;;;;;;;;;5090288;28;20073;-61
2023/05/31 12:52:00;;;;;;;3.70;3.30;;;;;;;;;;5091798;28;20024;-60
2023/05/31 12:54:26;;;;;;;7.85;3.50;;;;;;;;;;5092369;28;20073;-61
2023/05/31 12:56:52;;;;;;;6.00;3.67;;;;;;;;;;5092309;28;20474;-61
2023/05/31 12:59:18;;;;;;;7.15;3.78;;;;;;;;;;5092485;28;20106;-64
2023/05/31 13:01:44;;;;;;;5.57;3.15;;;;;;;;;;5092789;28;20036;-63
2023/05/31 13:04:13;;;;;;;4.45;3.33;;;;;;;;;;5091633;28;20027;-64
2023/05/31 13:06:40;;;;;;;4.53;3.40;;;;;;;;;;5092622;28;20024;-61
2023/05/31 13:09:06;;;;;;;4.90;3.50;;;;;;;;;;5092738;28;20032;-61
2023/05/31 13:11:39;;;;;;;5.50;3.40;;;;;;;;;;5092413;28;20024;-63
2023/05/31 13:14:08;;;;;;;4.13;3.53;;;;;;;;;;5092657;28;20074;-61
2023/05/31 13:16:34;;;;;;;6.50;3.50;;;;;;;;;;5092264;28;20036;-61
2023/05/31 13:19:01;;;;;;;5.18;3.70;;;;;;;;;;5092076;28;20499;-61
2023/05/31 13:21:28;;;;;;;5.20;3.15;;;;;;;;;;5091750;28;20059;-65
2023/05/31 13:23:54;;;;;;;4.82;3.13;;;;;;;;;;5091758;28;20031;-61
2023/05/31 13:26:22;;;;;;;4.65;3.72;;;;;;;;;;5092044;28;20032;-61
2023/05/31 13:28:48;;;;;;;4.35;3.58;;;;;;;;;;5092317;28;20456;-60
2023/05/31 13:31:13;;;;;;;3.85;3.15;;;;;;;;;;5092482;28;20028;-61
2023/05/31 13:33:39;;;;;;;5.25;3.40;;;;;;;;;;5092295;28;20022;-61
2023/05/31 13:36:06;;;;;;;4.97;3.55;;;;;;;;;;5092233;28;20024;-63
2023/05/31 13:38:32;;;;;;;5.65;3.60;;;;;;;;;;5092179;28;20044;-61
2023/05/31 13:40:58;;;;;;;4.45;3.40;;;;;;;;;;5092080;28;20387;-61
2023/05/31 13:43:24;;;;;;;5.10;3.65;;;;;;;;;;5096043;28;20024;-61
2023/05/31 13:45:52;;;;;;;5.22;3.35;;;;;;;;;;5096089;28;20028;-61
2023/05/31 13:48:18;;;;;;;5.68;3.30;;;;;;;;;;5096470;28;20058;-61
2023/05/31 13:50:44;;;;;;;6.07;3.47;;;;;;;;;;5096141;28;20024;-61
2023/05/31 13:53:10;;;;;;;3.42;3.13;;;;;;;;;;5096300;28;20028;-65
2023/05/31 13:55:37;;;;;;;5.68;3.55;;;;;;;;;;5096165;28;20028;-64
2023/05/31 13:58:06;;;;;;;6.53;3.67;;;;;;;;;;5096269;28;20103;-62
2023/05/31 14:00:32;;;;;;;5.07;3.53;;;;;;;;;;5095890;28;20021;-61
2023/05/31 14:02:58;;;;;;;4.38;3.15;;;;;;;;;;5095870;28;20115;-64
2023/05/31 14:05:25;;;;;;;4.75;3.22;;;;;;;;;;5095866;28;20081;-62
2023/05/31 14:07:52;;;;;;;5.45;3.22;;;;;;;;;;5096021;28;20023;-61
2023/05/31 14:10:18;;;;;;;4.70;3.20;;;;;;;;;;5095924;28;20051;-60
2023/05/31 14:12:43;;;;;;;3.60;3.10;;;;;;;;;;5095909;28;20058;-61
2023/05/31 14:15:10;;;;;;;4.60;3.28;;;;;;;;;;5095624;28;20024;-62
2023/05/31 14:17:35;;;;;;;3.90;3.30;;;;;;;;;;5096045;28;20039;-64
2023/05/31 14:20:04;;;;;;;4.43;3.42;;;;;;;;;;5095543;28;20360;-63
2023/05/31 14:22:30;;;;;;;4.68;3.30;;;;;;;;;;5095368;28;20067;-60
2023/05/31 14:24:56;;;;;;;5.65;3.20;;;;;;;;;;5094232;28;20107;-64
2023/05/31 14:27:22;;;;;;;4.32;3.20;;;;;;;;;;5095506;28;20111;-63
2023/05/31 14:29:47;;;;;;;4.80;3.30;;;;;;;;;;5095404;28;20034;-64
2023/05/31 14:32:14;;;;;;;4.75;3.28;;;;;;;;;;5095791;28;20059;-61
2023/05/31 14:34:40;;;;;;;4.20;3.40;;;;;;;;;;5095390;28;20426;-61
2023/05/31 14:37:06;;;;;;;4.45;3.45;;;;;;;;;;5095243;28;20027;-61
2023/05/31 14:39:32;;;;;;;4.68;3.42;;;;;;;;;;5095049;28;20059;-64
2023/05/31 14:41:58;;;;;;;5.10;3.63;;;;;;;;;;5095476;28;20111;-64
2023/05/31 14:44:24;;;;;;;4.53;3.40;;;;;;;;;;5095348;28;20024;-62